sensor_id;sensor_type;location;lat;lon;timestamp;P1;durP1;ratioP1;P2;durP2;ratioP2
6638;SDS011;3355;52.882;8.430;2022-08-25T00:00:32;6.67;;;4.10;;
6638;SDS011;3355;52.882;8.430;2022-08-25T00:03:01;5.23;;;3.97;;
6638;SDS011;3355;52.882;8.430;2022-08-25T00:05:28;4.40;;;3.67;;
6638;SDS011;3355;52.882;8.430;2022-08-25T00:07:55;3.97;;;3.30;;
6638;SDS011;3355;52.882;8.430;2022-08-25T00:10:22;6.43;;;3.53;;
6638;SDS011;3355;52.882;8.430;2022-08-25T00:12:48;5.07;;;3.73;;
6638;SDS011;3355;52.882;8.430;2022-08-25T00:15:15;6.00;;;3.93;;
6638;SDS011;3355;52.882;8.430;2022-08-25T00:17:43;7.47;;;4.10;;
6638;SDS011;3355;52.882;8.430;2022-08-25T00:20:10;6.13;;;3.63;;
6638;SDS011;3355;52.882;8.430;2022-08-25T00:22:37;4.87;;;3.93;;
6638;SDS011;3355;52.882;8.430;2022-08-25T00:25:04;4.67;;;3.90;;
6638;SDS011;3355;52.882;8.430;2022-08-25T00:27:31;6.37;;;4.40;;
6638;SDS011;3355;52.882;8.430;2022-08-25T00:29:57;5.43;;;4.00;;
6638;SDS011;3355;52.882;8.430;2022-08-25T00:32:24;5.07;;;3.27;;
6638;SDS011;3355;52.882;8.430;2022-08-25T00:34:53;4.30;;;3.47;;
6638;SDS011;3355;52.882;8.430;2022-08-25T00:37:19;7.33;;;3.73;;
6638;SDS011;3355;52.882;8.430;2022-08-25T00:39:46;7.03;;;3.57;;
6638;SDS011;3355;52.882;8.430;2022-08-25T00:42:13;4.83;;;3.40;;
6638;SDS011;3355;52.882;8.430;2022-08-25T00:44:40;13.17;;;4.27;;
6638;SDS011;3355;52.882;8.430;2022-08-25T00:47:07;6.43;;;3.80;;
6638;SDS011;3355;52.882;8.430;2022-08-25T00:49:35;5.80;;;4.37;;
6638;SDS011;3355;52.882;8.430;2022-08-25T00:52:05;4.40;;;3.53;;
6638;SDS011;3355;52.882;8.430;2022-08-25T00:54:34;6.70;;;4.00;;
6638;SDS011;3355;52.882;8.430;2022-08-25T00:57:03;6.60;;;3.90;;
6638;SDS011;3355;52.882;8.430;2022-08-25T00:59:31;8.50;;;4.03;;
6638;SDS011;3355;52.882;8.430;2022-08-25T01:01:58;5.77;;;4.10;;
6638;SDS011;3355;52.882;8.430;2022-08-25T01:04:24;5.00;;;3.20;;
6638;SDS011;3355;52.882;8.430;2022-08-25T01:06:51;7.00;;;4.30;;
6638;SDS011;3355;52.882;8.430;2022-08-25T01:09:21;7.23;;;4.00;;
6638;SDS011;3355;52.882;8.430;2022-08-25T01:11:48;6.17;;;4.07;;
6638;SDS011;3355;52.882;8.430;2022-08-25T01:14:15;6.87;;;4.07;;
6638;SDS011;3355;52.882;8.430;2022-08-25T01:16:43;6.70;;;5.20;;
6638;SDS011;3355;52.882;8.430;2022-08-25T01:19:11;5.13;;;3.90;;
6638;SDS011;3355;52.882;8.430;2022-08-25T01:21:41;5.97;;;4.13;;
6638;SDS011;3355;52.882;8.430;2022-08-25T01:24:11;7.80;;;4.50;;
6638;SDS011;3355;52.882;8.430;2022-08-25T01:26:41;7.87;;;4.33;;
6638;SDS011;3355;52.882;8.430;2022-08-25T01:29:08;4.57;;;3.60;;
6638;SDS011;3355;52.882;8.430;2022-08-25T01:31:50;5.07;;;4.57;;
6638;SDS011;3355;52.882;8.430;2022-08-25T01:34:21;4.27;;;3.60;;
6638;SDS011;3355;52.882;8.430;2022-08-25T01:36:50;4.97;;;4.43;;
6638;SDS011;3355;52.882;8.430;2022-08-25T01:39:16;5.77;;;4.13;;
6638;SDS011;3355;52.882;8.430;2022-08-25T01:41:58;6.73;;;4.70;;
6638;SDS011;3355;52.882;8.430;2022-08-25T01:44:33;5.93;;;4.53;;
6638;SDS011;3355;52.882;8.430;2022-08-25T01:47:00;6.87;;;4.70;;
6638;SDS011;3355;52.882;8.430;2022-08-25T01:50:22;6.00;;;4.43;;
6638;SDS011;3355;52.882;8.430;2022-08-25T01:52:53;6.77;;;3.87;;
6638;SDS011;3355;52.882;8.430;2022-08-25T01:55:33;6.50;;;4.60;;
6638;SDS011;3355;52.882;8.430;2022-08-25T01:58:15;6.33;;;5.40;;
6638;SDS011;3355;52.882;8.430;2022-08-25T02:00:43;5.43;;;4.20;;
6638;SDS011;3355;52.882;8.430;2022-08-25T02:03:14;5.87;;;3.70;;
6638;SDS011;3355;52.882;8.430;2022-08-25T02:05:41;6.73;;;5.80;;
6638;SDS011;3355;52.882;8.430;2022-08-25T02:08:09;7.73;;;5.10;;
6638;SDS011;3355;52.882;8.430;2022-08-25T02:10:36;8.53;;;4.90;;
6638;SDS011;3355;52.882;8.430;2022-08-25T02:13:04;6.77;;;4.40;;
6638;SDS011;3355;52.882;8.430;2022-08-25T02:15:32;6.17;;;4.47;;
6638;SDS011;3355;52.882;8.430;2022-08-25T02:17:59;6.37;;;4.80;;
6638;SDS011;3355;52.882;8.430;2022-08-25T02:20:26;6.10;;;4.73;;
6638;SDS011;3355;52.882;8.430;2022-08-25T02:22:53;5.20;;;4.70;;
6638;SDS011;3355;52.882;8.430;2022-08-25T02:25:20;6.23;;;4.77;;
6638;SDS011;3355;52.882;8.430;2022-08-25T02:27:47;8.10;;;4.33;;
6638;SDS011;3355;52.882;8.430;2022-08-25T02:30:14;7.57;;;4.90;;
6638;SDS011;3355;52.882;8.430;2022-08-25T02:32:41;5.80;;;4.17;;
6638;SDS011;3355;52.882;8.430;2022-08-25T02:35:08;8.07;;;4.60;;
6638;SDS011;3355;52.882;8.430;2022-08-25T02:37:35;6.23;;;4.90;;
6638;SDS011;3355;52.882;8.430;2022-08-25T02:40:02;5.30;;;4.17;;
6638;SDS011;3355;52.882;8.430;2022-08-25T02:42:31;5.73;;;4.33;;
6638;SDS011;3355;52.882;8.430;2022-08-25T02:44:58;5.73;;;4.40;;
6638;SDS011;3355;52.882;8.430;2022-08-25T02:47:25;6.03;;;4.37;;
6638;SDS011;3355;52.882;8.430;2022-08-25T02:49:51;6.40;;;4.50;;
6638;SDS011;3355;52.882;8.430;2022-08-25T02:52:19;5.80;;;4.50;;
6638;SDS011;3355;52.882;8.430;2022-08-25T02:54:46;6.67;;;5.07;;
6638;SDS011;3355;52.882;8.430;2022-08-25T02:57:12;5.30;;;3.97;;
6638;SDS011;3355;52.882;8.430;2022-08-25T02:59:41;5.50;;;4.83;;
6638;SDS011;3355;52.882;8.430;2022-08-25T03:02:11;6.10;;;4.63;;
6638;SDS011;3355;52.882;8.430;2022-08-25T03:04:38;7.20;;;4.93;;
6638;SDS011;3355;52.882;8.430;2022-08-25T03:07:04;6.60;;;4.80;;
6638;SDS011;3355;52.882;8.430;2022-08-25T03:09:31;6.83;;;5.60;;
6638;SDS011;3355;52.882;8.430;2022-08-25T03:11:57;9.93;;;4.70;;
6638;SDS011;3355;52.882;8.430;2022-08-25T03:14:24;5.40;;;4.83;;
6638;SDS011;3355;52.882;8.430;2022-08-25T03:16:53;6.53;;;4.87;;
6638;SDS011;3355;52.882;8.430;2022-08-25T03:19:21;8.70;;;5.63;;
6638;SDS011;3355;52.882;8.430;2022-08-25T03:21:48;6.23;;;5.10;;
6638;SDS011;3355;52.882;8.430;2022-08-25T03:24:16;6.00;;;4.27;;
6638;SDS011;3355;52.882;8.430;2022-08-25T03:26:43;7.37;;;4.43;;
6638;SDS011;3355;52.882;8.430;2022-08-25T03:29:17;6.13;;;5.30;;
6638;SDS011;3355;52.882;8.430;2022-08-25T03:31:44;7.80;;;4.93;;
6638;SDS011;3355;52.882;8.430;2022-08-25T03:34:12;8.03;;;5.10;;
6638;SDS011;3355;52.882;8.430;2022-08-25T03:36:40;6.87;;;5.93;;
6638;SDS011;3355;52.882;8.430;2022-08-25T03:39:07;8.70;;;5.13;;
6638;SDS011;3355;52.882;8.430;2022-08-25T03:41:34;6.23;;;4.20;;
6638;SDS011;3355;52.882;8.430;2022-08-25T03:44:02;9.17;;;6.10;;
6638;SDS011;3355;52.882;8.430;2022-08-25T03:46:30;5.47;;;4.87;;
6638;SDS011;3355;52.882;8.430;2022-08-25T03:48:59;7.53;;;5.40;;
6638;SDS011;3355;52.882;8.430;2022-08-25T03:51:28;10.40;;;5.87;;
6638;SDS011;3355;52.882;8.430;2022-08-25T03:53:58;6.63;;;5.53;;
6638;SDS011;3355;52.882;8.430;2022-08-25T03:56:26;6.77;;;5.47;;
6638;SDS011;3355;52.882;8.430;2022-08-25T03:58:52;7.33;;;5.63;;
6638;SDS011;3355;52.882;8.430;2022-08-25T04:01:19;6.60;;;4.97;;
6638;SDS011;3355;52.882;8.430;2022-08-25T04:03:46;5.33;;;4.70;;
6638;SDS011;3355;52.882;8.430;2022-08-25T04:06:14;7.47;;;5.27;;
6638;SDS011;3355;52.882;8.430;2022-08-25T04:08:42;6.77;;;5.93;;
6638;SDS011;3355;52.882;8.430;2022-08-25T04:11:09;6.50;;;5.27;;
6638;SDS011;3355;52.882;8.430;2022-08-25T04:13:38;8.90;;;5.30;;
6638;SDS011;3355;52.882;8.430;2022-08-25T04:16:09;7.30;;;5.57;;
6638;SDS011;3355;52.882;8.430;2022-08-25T04:18:36;7.53;;;6.27;;
6638;SDS011;3355;52.882;8.430;2022-08-25T04:21:04;9.10;;;6.30;;
6638;SDS011;3355;52.882;8.430;2022-08-25T04:23:33;7.90;;;5.80;;
6638;SDS011;3355;52.882;8.430;2022-08-25T04:26:02;6.37;;;5.30;;
6638;SDS011;3355;52.882;8.430;2022-08-25T04:28:33;8.10;;;6.00;;
6638;SDS011;3355;52.882;8.430;2022-08-25T04:31:04;9.50;;;6.20;;
6638;SDS011;3355;52.882;8.430;2022-08-25T04:33:32;6.67;;;5.83;;
6638;SDS011;3355;52.882;8.430;2022-08-25T04:35:59;8.67;;;6.50;;
6638;SDS011;3355;52.882;8.430;2022-08-25T04:38:26;7.27;;;6.53;;
6638;SDS011;3355;52.882;8.430;2022-08-25T04:40:56;8.17;;;6.00;;
6638;SDS011;3355;52.882;8.430;2022-08-25T04:43:24;13.53;;;6.17;;
6638;SDS011;3355;52.882;8.430;2022-08-25T04:45:51;9.90;;;6.20;;
6638;SDS011;3355;52.882;8.430;2022-08-25T04:48:18;7.87;;;5.83;;
6638;SDS011;3355;52.882;8.430;2022-08-25T04:50:45;8.07;;;6.47;;
6638;SDS011;3355;52.882;8.430;2022-08-25T04:53:11;10.70;;;7.63;;
6638;SDS011;3355;52.882;8.430;2022-08-25T04:55:39;8.93;;;6.70;;
6638;SDS011;3355;52.882;8.430;2022-08-25T04:58:06;14.20;;;8.23;;
6638;SDS011;3355;52.882;8.430;2022-08-25T05:00:34;14.90;;;7.63;;
6638;SDS011;3355;52.882;8.430;2022-08-25T05:03:01;8.67;;;6.40;;
6638;SDS011;3355;52.882;8.430;2022-08-25T05:05:28;8.00;;;6.97;;
6638;SDS011;3355;52.882;8.430;2022-08-25T05:07:55;13.00;;;7.83;;
6638;SDS011;3355;52.882;8.430;2022-08-25T05:10:22;10.27;;;7.40;;
6638;SDS011;3355;52.882;8.430;2022-08-25T05:12:48;11.50;;;7.70;;
6638;SDS011;3355;52.882;8.430;2022-08-25T05:15:15;8.57;;;7.00;;
6638;SDS011;3355;52.882;8.430;2022-08-25T05:18:01;11.20;;;9.07;;
6638;SDS011;3355;52.882;8.430;2022-08-25T05:20:27;10.23;;;7.57;;
6638;SDS011;3355;52.882;8.430;2022-08-25T05:22:55;15.73;;;7.27;;
6638;SDS011;3355;52.882;8.430;2022-08-25T05:25:21;8.43;;;7.23;;
6638;SDS011;3355;52.882;8.430;2022-08-25T05:27:48;9.00;;;6.83;;
6638;SDS011;3355;52.882;8.430;2022-08-25T05:30:15;13.50;;;6.97;;
6638;SDS011;3355;52.882;8.430;2022-08-25T05:32:41;10.17;;;8.13;;
6638;SDS011;3355;52.882;8.430;2022-08-25T05:35:10;8.97;;;7.80;;
6638;SDS011;3355;52.882;8.430;2022-08-25T05:37:36;11.13;;;7.30;;
6638;SDS011;3355;52.882;8.430;2022-08-25T05:40:03;9.27;;;7.80;;
6638;SDS011;3355;52.882;8.430;2022-08-25T05:42:31;10.40;;;7.83;;
6638;SDS011;3355;52.882;8.430;2022-08-25T05:44:57;10.67;;;7.93;;
6638;SDS011;3355;52.882;8.430;2022-08-25T05:47:24;10.70;;;8.63;;
6638;SDS011;3355;52.882;8.430;2022-08-25T05:49:51;11.43;;;8.70;;
6638;SDS011;3355;52.882;8.430;2022-08-25T05:52:19;11.83;;;8.50;;
6638;SDS011;3355;52.882;8.430;2022-08-25T05:54:45;12.00;;;8.33;;
6638;SDS011;3355;52.882;8.430;2022-08-25T05:57:12;9.50;;;8.50;;
6638;SDS011;3355;52.882;8.430;2022-08-25T05:59:38;11.37;;;8.80;;
6638;SDS011;3355;52.882;8.430;2022-08-25T06:02:05;11.30;;;8.80;;
6638;SDS011;3355;52.882;8.430;2022-08-25T06:04:49;10.73;;;8.60;;
6638;SDS011;3355;52.882;8.430;2022-08-25T06:07:16;11.70;;;9.83;;
6638;SDS011;3355;52.882;8.430;2022-08-25T06:09:44;12.93;;;9.10;;
6638;SDS011;3355;52.882;8.430;2022-08-25T06:12:13;13.53;;;9.90;;
6638;SDS011;3355;52.882;8.430;2022-08-25T06:14:39;14.57;;;10.10;;
6638;SDS011;3355;52.882;8.430;2022-08-25T06:17:06;13.10;;;9.37;;
6638;SDS011;3355;52.882;8.430;2022-08-25T06:19:33;12.33;;;9.77;;
6638;SDS011;3355;52.882;8.430;2022-08-25T06:21:59;14.20;;;10.93;;
6638;SDS011;3355;52.882;8.430;2022-08-25T06:24:26;11.33;;;9.40;;
6638;SDS011;3355;52.882;8.430;2022-08-25T06:26:55;10.33;;;9.23;;
6638;SDS011;3355;52.882;8.430;2022-08-25T06:29:22;10.70;;;9.60;;
6638;SDS011;3355;52.882;8.430;2022-08-25T06:31:49;11.00;;;8.60;;
6638;SDS011;3355;52.882;8.430;2022-08-25T06:34:16;11.13;;;9.90;;
6638;SDS011;3355;52.882;8.430;2022-08-25T06:36:43;12.93;;;10.70;;
6638;SDS011;3355;52.882;8.430;2022-08-25T06:39:10;10.67;;;9.20;;
6638;SDS011;3355;52.882;8.430;2022-08-25T06:41:37;11.37;;;9.70;;
6638;SDS011;3355;52.882;8.430;2022-08-25T06:44:05;12.43;;;10.03;;
6638;SDS011;3355;52.882;8.430;2022-08-25T06:46:31;12.17;;;10.10;;
6638;SDS011;3355;52.882;8.430;2022-08-25T06:48:58;12.13;;;9.70;;
6638;SDS011;3355;52.882;8.430;2022-08-25T06:51:24;16.20;;;9.40;;
6638;SDS011;3355;52.882;8.430;2022-08-25T06:53:51;14.57;;;9.03;;
6638;SDS011;3355;52.882;8.430;2022-08-25T06:56:19;16.00;;;8.97;;
6638;SDS011;3355;52.882;8.430;2022-08-25T06:58:46;10.93;;;9.63;;
6638;SDS011;3355;52.882;8.430;2022-08-25T07:01:16;14.00;;;8.83;;
6638;SDS011;3355;52.882;8.430;2022-08-25T07:03:46;12.07;;;9.77;;
6638;SDS011;3355;52.882;8.430;2022-08-25T07:06:13;12.23;;;9.63;;
6638;SDS011;3355;52.882;8.430;2022-08-25T07:08:39;12.63;;;9.73;;
6638;SDS011;3355;52.882;8.430;2022-08-25T07:11:07;13.00;;;10.70;;
6638;SDS011;3355;52.882;8.430;2022-08-25T07:13:34;12.00;;;10.40;;
6638;SDS011;3355;52.882;8.430;2022-08-25T07:16:02;12.40;;;10.03;;
6638;SDS011;3355;52.882;8.430;2022-08-25T07:18:31;14.27;;;11.27;;
6638;SDS011;3355;52.882;8.430;2022-08-25T07:20:58;11.93;;;10.47;;
6638;SDS011;3355;52.882;8.430;2022-08-25T07:23:25;12.43;;;10.90;;
6638;SDS011;3355;52.882;8.430;2022-08-25T07:25:52;12.40;;;10.37;;
6638;SDS011;3355;52.882;8.430;2022-08-25T07:28:19;12.33;;;11.03;;
6638;SDS011;3355;52.882;8.430;2022-08-25T07:30:46;12.30;;;9.93;;
6638;SDS011;3355;52.882;8.430;2022-08-25T07:36:38;12.43;;;11.13;;
6638;SDS011;3355;52.882;8.430;2022-08-25T07:39:04;13.33;;;10.97;;
6638;SDS011;3355;52.882;8.430;2022-08-25T07:41:31;16.77;;;10.90;;
6638;SDS011;3355;52.882;8.430;2022-08-25T07:44:02;16.60;;;12.03;;
6638;SDS011;3355;52.882;8.430;2022-08-25T07:46:29;13.00;;;11.40;;
6638;SDS011;3355;52.882;8.430;2022-08-25T07:48:56;13.97;;;11.77;;
6638;SDS011;3355;52.882;8.430;2022-08-25T07:51:22;12.33;;;11.03;;
6638;SDS011;3355;52.882;8.430;2022-08-25T07:53:50;12.67;;;11.10;;
6638;SDS011;3355;52.882;8.430;2022-08-25T07:56:17;15.57;;;10.03;;
6638;SDS011;3355;52.882;8.430;2022-08-25T07:58:44;15.20;;;11.30;;
6638;SDS011;3355;52.882;8.430;2022-08-25T08:01:12;12.57;;;11.23;;
6638;SDS011;3355;52.882;8.430;2022-08-25T08:03:39;13.10;;;11.20;;
6638;SDS011;3355;52.882;8.430;2022-08-25T08:06:06;11.73;;;10.60;;
6638;SDS011;3355;52.882;8.430;2022-08-25T08:08:35;16.73;;;11.13;;
6638;SDS011;3355;52.882;8.430;2022-08-25T08:11:03;10.63;;;9.53;;
6638;SDS011;3355;52.882;8.430;2022-08-25T08:13:31;12.33;;;11.07;;
6638;SDS011;3355;52.882;8.430;2022-08-25T08:15:58;9.80;;;8.87;;
6638;SDS011;3355;52.882;8.430;2022-08-25T08:18:24;10.73;;;9.63;;
6638;SDS011;3355;52.882;8.430;2022-08-25T08:20:51;11.60;;;9.43;;
6638;SDS011;3355;52.882;8.430;2022-08-25T08:23:17;12.00;;;10.77;;
6638;SDS011;3355;52.882;8.430;2022-08-25T08:25:45;12.23;;;9.83;;
6638;SDS011;3355;52.882;8.430;2022-08-25T08:28:13;9.27;;;8.37;;
6638;SDS011;3355;52.882;8.430;2022-08-25T08:30:39;9.50;;;8.50;;
6638;SDS011;3355;52.882;8.430;2022-08-25T08:33:06;9.37;;;8.47;;
6638;SDS011;3355;52.882;8.430;2022-08-25T08:35:32;9.97;;;8.93;;
6638;SDS011;3355;52.882;8.430;2022-08-25T08:37:59;8.80;;;6.90;;
6638;SDS011;3355;52.882;8.430;2022-08-25T08:40:26;13.70;;;8.30;;
6638;SDS011;3355;52.882;8.430;2022-08-25T08:42:55;9.80;;;8.80;;
6638;SDS011;3355;52.882;8.430;2022-08-25T08:45:30;10.18;;;8.80;;
6638;SDS011;3355;52.882;8.430;2022-08-25T08:48:07;8.00;;;7.30;;
6638;SDS011;3355;52.882;8.430;2022-08-25T08:50:38;8.43;;;7.53;;
6638;SDS011;3355;52.882;8.430;2022-08-25T08:53:12;9.15;;;8.25;;
6638;SDS011;3355;52.882;8.430;2022-08-25T08:55:44;12.90;;;10.00;;
6638;SDS011;3355;52.882;8.430;2022-08-25T08:58:14;8.63;;;7.82;;
6638;SDS011;3355;52.882;8.430;2022-08-25T09:00:47;8.77;;;7.88;;
6638;SDS011;3355;52.882;8.430;2022-08-25T09:03:19;10.85;;;7.97;;
6638;SDS011;3355;52.882;8.430;2022-08-25T09:05:53;8.75;;;7.85;;
6638;SDS011;3355;52.882;8.430;2022-08-25T09:08:21;8.57;;;7.68;;
6638;SDS011;3355;52.882;8.430;2022-08-25T09:10:52;8.98;;;7.95;;
6638;SDS011;3355;52.882;8.430;2022-08-25T09:13:26;8.98;;;7.60;;
6638;SDS011;3355;52.882;8.430;2022-08-25T09:16:02;9.30;;;7.45;;
6638;SDS011;3355;52.882;8.430;2022-08-25T09:18:49;8.73;;;6.70;;
6638;SDS011;3355;52.882;8.430;2022-08-25T09:21:21;7.88;;;7.18;;
6638;SDS011;3355;52.882;8.430;2022-08-25T09:23:56;7.78;;;6.60;;
6638;SDS011;3355;52.882;8.430;2022-08-25T09:26:33;7.75;;;7.15;;
6638;SDS011;3355;52.882;8.430;2022-08-25T09:29:01;9.30;;;6.78;;
6638;SDS011;3355;52.882;8.430;2022-08-25T09:31:32;8.75;;;6.60;;
6638;SDS011;3355;52.882;8.430;2022-08-25T09:34:03;7.63;;;6.93;;
6638;SDS011;3355;52.882;8.430;2022-08-25T09:36:31;7.22;;;6.53;;
6638;SDS011;3355;52.882;8.430;2022-08-25T09:38:59;7.65;;;6.88;;
6638;SDS011;3355;52.882;8.430;2022-08-25T09:41:40;6.55;;;5.95;;
6638;SDS011;3355;52.882;8.430;2022-08-25T09:44:15;7.00;;;6.38;;
6638;SDS011;3355;52.882;8.430;2022-08-25T09:46:54;6.57;;;5.97;;
6638;SDS011;3355;52.882;8.430;2022-08-25T09:49:34;7.95;;;7.18;;
6638;SDS011;3355;52.882;8.430;2022-08-25T09:52:23;12.80;;;7.95;;
6638;SDS011;3355;52.882;8.430;2022-08-25T09:54:52;6.93;;;6.18;;
6638;SDS011;3355;52.882;8.430;2022-08-25T09:57:27;6.65;;;6.05;;
6638;SDS011;3355;52.882;8.430;2022-08-25T09:59:55;6.32;;;5.72;;
6638;SDS011;3355;52.882;8.430;2022-08-25T10:02:24;7.72;;;5.80;;
6638;SDS011;3355;52.882;8.430;2022-08-25T10:04:52;10.48;;;6.25;;
6638;SDS011;3355;52.882;8.430;2022-08-25T10:07:20;8.43;;;6.32;;
6638;SDS011;3355;52.882;8.430;2022-08-25T10:09:51;6.07;;;5.43;;
6638;SDS011;3355;52.882;8.430;2022-08-25T10:12:20;7.35;;;6.65;;
6638;SDS011;3355;52.882;8.430;2022-08-25T10:14:49;6.47;;;5.90;;
6638;SDS011;3355;52.882;8.430;2022-08-25T10:17:18;7.55;;;6.85;;
6638;SDS011;3355;52.882;8.430;2022-08-25T10:19:51;7.80;;;7.03;;
6638;SDS011;3355;52.882;8.430;2022-08-25T10:22:22;6.15;;;5.60;;
6638;SDS011;3355;52.882;8.430;2022-08-25T10:24:55;11.55;;;6.60;;
6638;SDS011;3355;52.882;8.430;2022-08-25T10:27:23;7.03;;;6.43;;
6638;SDS011;3355;52.882;8.430;2022-08-25T10:30:04;7.05;;;6.45;;
6638;SDS011;3355;52.882;8.430;2022-08-25T10:32:40;7.28;;;5.97;;
6638;SDS011;3355;52.882;8.430;2022-08-25T10:35:17;6.32;;;5.72;;
6638;SDS011;3355;52.882;8.430;2022-08-25T10:37:46;6.53;;;5.93;;
6638;SDS011;3355;52.882;8.430;2022-08-25T10:40:33;6.57;;;5.97;;
6638;SDS011;3355;52.882;8.430;2022-08-25T10:43:06;7.50;;;5.78;;
6638;SDS011;3355;52.882;8.430;2022-08-25T10:45:37;7.32;;;6.63;;
6638;SDS011;3355;52.882;8.430;2022-08-25T10:48:10;7.55;;;6.85;;
6638;SDS011;3355;52.882;8.430;2022-08-25T10:50:44;6.50;;;5.82;;
6638;SDS011;3355;52.882;8.430;2022-08-25T10:53:15;7.85;;;6.72;;
6638;SDS011;3355;52.882;8.430;2022-08-25T10:55:58;6.75;;;6.10;;
6638;SDS011;3355;52.882;8.430;2022-08-25T10:58:32;8.00;;;5.72;;
6638;SDS011;3355;52.882;8.430;2022-08-25T11:01:17;7.30;;;6.60;;
6638;SDS011;3355;52.882;8.430;2022-08-25T11:03:51;8.07;;;6.53;;
6638;SDS011;3355;52.882;8.430;2022-08-25T11:06:24;7.10;;;6.30;;
6638;SDS011;3355;52.882;8.430;2022-08-25T11:09:05;6.63;;;5.93;;
6638;SDS011;3355;52.882;8.430;2022-08-25T11:11:35;7.13;;;6.28;;
6638;SDS011;3355;52.882;8.430;2022-08-25T11:14:05;7.97;;;5.88;;
6638;SDS011;3355;52.882;8.430;2022-08-25T11:16:35;7.30;;;6.55;;
6638;SDS011;3355;52.882;8.430;2022-08-25T11:19:04;7.75;;;6.55;;
6638;SDS011;3355;52.882;8.430;2022-08-25T11:21:37;7.82;;;7.13;;
6638;SDS011;3355;52.882;8.430;2022-08-25T11:24:09;7.80;;;6.07;;
6638;SDS011;3355;52.882;8.430;2022-08-25T11:26:42;7.60;;;6.85;;
6638;SDS011;3355;52.882;8.430;2022-08-25T11:29:13;9.73;;;6.75;;
6638;SDS011;3355;52.882;8.430;2022-08-25T11:31:42;6.95;;;6.30;;
6638;SDS011;3355;52.882;8.430;2022-08-25T11:34:10;7.05;;;6.40;;
6638;SDS011;3355;52.882;8.430;2022-08-25T11:36:40;7.10;;;6.50;;
6638;SDS011;3355;52.882;8.430;2022-08-25T11:39:13;7.72;;;7.03;;
6638;SDS011;3355;52.882;8.430;2022-08-25T11:41:45;8.13;;;6.90;;
6638;SDS011;3355;52.882;8.430;2022-08-25T11:44:42;7.47;;;6.78;;
6638;SDS011;3355;52.882;8.430;2022-08-25T11:47:18;9.07;;;7.05;;
6638;SDS011;3355;52.882;8.430;2022-08-25T11:50:23;7.07;;;6.47;;
6638;SDS011;3355;52.882;8.430;2022-08-25T11:52:54;7.97;;;7.28;;
6638;SDS011;3355;52.882;8.430;2022-08-25T11:55:22;6.88;;;6.20;;
6638;SDS011;3355;52.882;8.430;2022-08-25T12:01:03;7.30;;;6.60;;
6638;SDS011;3355;52.882;8.430;2022-08-25T12:03:48;8.15;;;5.85;;
6638;SDS011;3355;52.882;8.430;2022-08-25T12:06:18;8.10;;;7.40;;
6638;SDS011;3355;52.882;8.430;2022-08-25T12:08:48;6.97;;;6.38;;
6638;SDS011;3355;52.882;8.430;2022-08-25T12:14:16;6.63;;;6.03;;
6638;SDS011;3355;52.882;8.430;2022-08-25T12:17:05;7.28;;;6.25;;
6638;SDS011;3355;52.882;8.430;2022-08-25T12:19:46;8.00;;;7.20;;
6638;SDS011;3355;52.882;8.430;2022-08-25T12:25:17;7.55;;;6.85;;
6638;SDS011;3355;52.882;8.430;2022-08-25T12:27:52;8.00;;;7.20;;
6638;SDS011;3355;52.882;8.430;2022-08-25T12:30:24;7.50;;;6.70;;
6638;SDS011;3355;52.882;8.430;2022-08-25T12:32:58;7.80;;;7.05;;
6638;SDS011;3355;52.882;8.430;2022-08-25T12:35:30;8.10;;;6.55;;
6638;SDS011;3355;52.882;8.430;2022-08-25T12:38:07;8.88;;;6.70;;
6638;SDS011;3355;52.882;8.430;2022-08-25T12:40:38;8.07;;;6.72;;
6638;SDS011;3355;52.882;8.430;2022-08-25T12:49:02;7.22;;;6.63;;
6638;SDS011;3355;52.882;8.430;2022-08-25T12:51:44;9.93;;;7.45;;
6638;SDS011;3355;52.882;8.430;2022-08-25T12:54:15;7.78;;;7.07;;
6638;SDS011;3355;52.882;8.430;2022-08-25T12:56:44;7.75;;;6.97;;
6638;SDS011;3355;52.882;8.430;2022-08-25T12:59:14;7.75;;;7.03;;
6638;SDS011;3355;52.882;8.430;2022-08-25T13:01:47;7.13;;;6.50;;
6638;SDS011;3355;52.882;8.430;2022-08-25T13:04:40;7.95;;;7.25;;
6638;SDS011;3355;52.882;8.430;2022-08-25T13:07:24;7.70;;;6.90;;
6638;SDS011;3355;52.882;8.430;2022-08-25T13:10:16;7.97;;;7.28;;
6638;SDS011;3355;52.882;8.430;2022-08-25T13:12:46;10.77;;;7.13;;
6638;SDS011;3355;52.882;8.430;2022-08-25T13:15:25;8.68;;;7.55;;
6638;SDS011;3355;52.882;8.430;2022-08-25T13:18:16;7.85;;;6.97;;
6638;SDS011;3355;52.882;8.430;2022-08-25T13:20:46;8.55;;;7.75;;
6638;SDS011;3355;52.882;8.430;2022-08-25T13:23:15;8.02;;;7.32;;
6638;SDS011;3355;52.882;8.430;2022-08-25T13:25:45;8.70;;;7.85;;
6638;SDS011;3355;52.882;8.430;2022-08-25T13:28:17;9.32;;;7.70;;
6638;SDS011;3355;52.882;8.430;2022-08-25T13:30:49;9.75;;;8.00;;
6638;SDS011;3355;52.882;8.430;2022-08-25T13:33:22;8.52;;;7.63;;
6638;SDS011;3355;52.882;8.430;2022-08-25T13:35:51;8.32;;;7.53;;
6638;SDS011;3355;52.882;8.430;2022-08-25T13:38:39;7.38;;;6.53;;
6638;SDS011;3355;52.882;8.430;2022-08-25T13:41:05;9.10;;;8.25;;
6638;SDS011;3355;52.882;8.430;2022-08-25T13:43:33;10.73;;;8.20;;
6638;SDS011;3355;52.882;8.430;2022-08-25T13:46:00;10.18;;;9.23;;
6638;SDS011;3355;52.882;8.430;2022-08-25T13:48:30;8.70;;;7.80;;
6638;SDS011;3355;52.882;8.430;2022-08-25T13:51:06;7.97;;;7.28;;
6638;SDS011;3355;52.882;8.430;2022-08-25T13:53:46;10.43;;;7.50;;
6638;SDS011;3355;52.882;8.430;2022-08-25T13:56:20;7.88;;;7.18;;
6638;SDS011;3355;52.882;8.430;2022-08-25T13:58:49;7.65;;;6.95;;
6638;SDS011;3355;52.882;8.430;2022-08-25T14:01:16;7.30;;;6.60;;
6638;SDS011;3355;52.882;8.430;2022-08-25T14:03:46;7.80;;;7.10;;
6638;SDS011;3355;52.882;8.430;2022-08-25T14:06:19;8.43;;;7.18;;
6638;SDS011;3355;52.882;8.430;2022-08-25T14:08:47;9.75;;;6.97;;
6638;SDS011;3355;52.882;8.430;2022-08-25T14:11:28;7.70;;;6.97;;
6638;SDS011;3355;52.882;8.430;2022-08-25T14:13:58;8.70;;;7.85;;
6638;SDS011;3355;52.882;8.430;2022-08-25T14:16:26;9.30;;;8.50;;
6638;SDS011;3355;52.882;8.430;2022-08-25T14:18:53;8.15;;;7.35;;
6638;SDS011;3355;52.882;8.430;2022-08-25T14:21:24;8.35;;;7.55;;
6638;SDS011;3355;52.882;8.430;2022-08-25T14:27:23;8.18;;;7.45;;
6638;SDS011;3355;52.882;8.430;2022-08-25T14:30:18;13.85;;;7.10;;
6638;SDS011;3355;52.882;8.430;2022-08-25T14:32:45;7.90;;;7.05;;
6638;SDS011;3355;52.882;8.430;2022-08-25T14:35:12;7.45;;;6.80;;
6638;SDS011;3355;52.882;8.430;2022-08-25T14:37:38;7.97;;;7.18;;
6638;SDS011;3355;52.882;8.430;2022-08-25T14:40:05;8.30;;;7.47;;
6638;SDS011;3355;52.882;8.430;2022-08-25T14:42:32;8.65;;;7.10;;
6638;SDS011;3355;52.882;8.430;2022-08-25T14:44:58;7.22;;;6.53;;
6638;SDS011;3355;52.882;8.430;2022-08-25T14:47:26;9.07;;;7.60;;
6638;SDS011;3355;52.882;8.430;2022-08-25T14:49:53;8.73;;;7.45;;
6638;SDS011;3355;52.882;8.430;2022-08-25T14:52:20;7.95;;;6.38;;
6638;SDS011;3355;52.882;8.430;2022-08-25T14:54:50;7.47;;;6.78;;
6638;SDS011;3355;52.882;8.430;2022-08-25T14:57:17;7.18;;;6.47;;
6638;SDS011;3355;52.882;8.430;2022-08-25T14:59:44;7.53;;;6.80;;
6638;SDS011;3355;52.882;8.430;2022-08-25T15:02:11;7.38;;;6.57;;
6638;SDS011;3355;52.882;8.430;2022-08-25T15:04:43;9.48;;;7.47;;
6638;SDS011;3355;52.882;8.430;2022-08-25T15:07:15;7.70;;;6.90;;
6638;SDS011;3355;52.882;8.430;2022-08-25T15:09:55;8.13;;;7.35;;
6638;SDS011;3355;52.882;8.430;2022-08-25T15:12:22;8.98;;;7.72;;
6638;SDS011;3355;52.882;8.430;2022-08-25T15:14:48;8.60;;;7.13;;
6638;SDS011;3355;52.882;8.430;2022-08-25T15:17:15;9.02;;;7.38;;
6638;SDS011;3355;52.882;8.430;2022-08-25T15:19:43;8.35;;;7.65;;
6638;SDS011;3355;52.882;8.430;2022-08-25T15:22:10;8.00;;;7.20;;
6638;SDS011;3355;52.882;8.430;2022-08-25T15:24:36;7.35;;;6.63;;
6638;SDS011;3355;52.882;8.430;2022-08-25T15:27:03;8.30;;;7.60;;
6638;SDS011;3355;52.882;8.430;2022-08-25T15:29:31;7.95;;;7.25;;
6638;SDS011;3355;52.882;8.430;2022-08-25T15:31:59;10.77;;;7.72;;
6638;SDS011;3355;52.882;8.430;2022-08-25T15:34:27;9.07;;;7.90;;
6638;SDS011;3355;52.882;8.430;2022-08-25T15:36:55;9.02;;;8.13;;
6638;SDS011;3355;52.882;8.430;2022-08-25T15:39:22;10.43;;;7.50;;
6638;SDS011;3355;52.882;8.430;2022-08-25T15:41:48;9.07;;;8.18;;
6638;SDS011;3355;52.882;8.430;2022-08-25T15:44:16;10.35;;;8.65;;
6638;SDS011;3355;52.882;8.430;2022-08-25T15:46:43;7.70;;;6.90;;
6638;SDS011;3355;52.882;8.430;2022-08-25T15:49:10;8.20;;;7.40;;